Time;durP1;ratioP1;P1;durP2;ratioP2;P2;SDS_P1;SDS_P2;PMS_P1;PMS_P2;Temp;Humidity;BMP_temperature;BMP_pressure;BME280_temperature;BME280_humidity;BME280_pressure;Samples;Min_cycle;Max_cycle;Signal;HPM_P1;HPM_P2
2022/11/15 00:01:38;;;;;;;;;;;;;;;18.11;65.91;100827.64;2388017;73;51542;-76
2022/11/15 00:04:40;;;;;;;;;;;;;;;18.11;65.93;100832.99;2423748;73;50674;-78
2022/11/15 00:07:41;;;;;;;;;;;;;;;18.09;65.98;100835.01;2379679;73;52495;-76
2022/11/15 00:10:48;;;;;;;;;;;;;;;18.09;66.04;100837.69;2329500;74;51570;-77
2022/11/15 00:13:50;;;;;;;;;;;;;;;18.10;65.91;100835.84;2327584;74;22029;-76
2022/11/15 00:16:52;;;;;;;;;;;;;;;18.09;65.92;100828.83;2329077;76;50237;-77
2022/11/15 00:19:53;;;;;;;;;;;;;;;18.07;66.01;100824.97;2299932;76;51703;-76
2022/11/15 00:22:55;;;;;;;;;;;;;;;18.05;66.07;100823.80;2300478;76;51508;-77
2022/11/15 00:25:57;;;;;;;;;;;;;;;18.04;66.03;100818.12;2329471;75;51022;-76
2022/11/15 00:28:59;;;;;;;;;;;;;;;18.04;66.06;100814.11;2329052;74;50664;-76
2022/11/15 00:32:00;;;;;;;;;;;;;;;18.05;65.97;100813.59;2328008;76;50286;-76
2022/11/15 00:35:02;;;;;;;;;;;;;;;18.03;65.96;100805.75;2300294;76;52399;-77
2022/11/15 00:38:04;;;;;;;;;;;;;;;18.03;66.10;100809.77;2313971;73;50740;-78
2022/11/15 00:41:06;;;;;;;;;;;;;;;18.04;66.11;100805.24;2353148;73;51511;-76
2022/11/15 00:44:08;;;;;;;;;;;;;;;18.03;66.00;100795.52;2327821;76;51769;-77
2022/11/15 00:47:09;;;;;;;;;;;;;;;18.03;65.94;100792.84;2302270;76;52489;-77
2022/11/15 00:50:11;;;;;;;;;;;;;;;18.04;65.97;100805.24;2302465;76;50710;-76
2022/11/15 00:53:12;;;;;;;;;;;;;;;18.01;66.08;100792.22;2337210;75;51512;-77
2022/11/15 00:56:14;;;;;;;;;;;;;;;18.01;65.99;100795.72;2350712;75;51441;-77
2022/11/15 00:59:15;;;;;;;;;;;;;;;18.00;65.95;100794.03;2336650;75;50991;-76
2022/11/15 01:02:17;;;;;;;;;;;;;;;18.00;66.03;100787.34;2362122;75;50233;-75
2022/11/15 01:05:19;;;;;;;;;;;;;;;18.01;65.92;100779.66;2361445;75;50278;-76
2022/11/15 01:08:20;;;;;;;;;;;;;;;17.99;65.90;100780.33;2330779;75;50628;-77
2022/11/15 01:11:22;;;;;;;;;;;;;;;17.99;66.02;100783.52;2333201;75;50661;-77
2022/11/15 01:14:23;;;;;;;;;;;;;;;17.99;65.96;100778.16;2325866;76;50751;-77
2022/11/15 01:17:25;;;;;;;;;;;;;;;17.98;65.92;100775.14;2326265;76;51463;-78
2022/11/15 01:20:26;;;;;;;;;;;;;;;17.97;65.93;100778.33;2300030;76;51664;-77
2022/11/15 01:23:28;;;;;;;;;;;;;;;17.97;65.92;100769.47;2291703;76;51921;-76
2022/11/15 01:26:30;;;;;;;;;;;;;;;17.96;65.90;100769.98;2325379;76;51531;-75
2022/11/15 01:29:32;;;;;;;;;;;;;;;17.96;65.89;100761.12;2325550;76;51711;-77
2022/11/15 01:32:33;;;;;;;;;;;;;;;17.96;65.89;100769.15;2325856;75;51683;-77
2022/11/15 01:35:37;;;;;;;;;;;;;;;17.95;65.91;100760.26;2300330;76;51491;-76
2022/11/15 01:38:38;;;;;;;;;;;;;;;17.95;65.94;100757.58;2348091;75;50296;-76
2022/11/15 01:41:40;;;;;;;;;;;;;;;17.95;65.89;100746.88;2340525;75;50727;-76
2022/11/15 01:44:43;;;;;;;;;;;;;;;17.93;65.85;100743.56;2365052;75;50443;-76
2022/11/15 01:47:46;;;;;;;;;;;;;;;17.95;65.82;100740.18;2340168;75;51825;-76
2022/11/15 01:50:48;;;;;;;;;;;;;;;17.94;65.76;100733.17;2364041;75;50372;-76
2022/11/15 01:53:49;;;;;;;;;;;;;;;17.93;65.84;100729.31;2360348;75;50463;-75
2022/11/15 01:56:52;;;;;;;;;;;;;;;17.96;65.75;100723.64;2356027;75;51485;-76
2022/11/15 01:59:54;;;;;;;;;;;;;;;17.94;65.73;100723.80;2330688;75;51769;-76
2022/11/15 02:02:56;;;;;;;;;;;;;;;17.95;65.75;100715.26;2356141;75;51274;-76
2022/11/15 02:05:57;;;;;;;;;;;;;;;17.92;65.73;100712.43;2355841;75;50812;-76
2022/11/15 02:08:59;;;;;;;;;;;;;;;17.93;65.78;100713.25;2331102;75;50760;-76
2022/11/15 02:12:01;;;;;;;;;;;;;;;17.92;65.84;100713.77;2291459;76;51594;-76
2022/11/15 02:15:02;;;;;;;;;;;;;;;17.92;65.75;100711.09;2315190;77;50669;-76
2022/11/15 02:18:05;;;;;;;;;;;;;;;17.91;65.73;100700.58;2315721;77;50689;-76
2022/11/15 02:21:12;;;;;;;;;;;;;;;17.92;65.79;100707.08;2314575;75;51557;-76
2022/11/15 02:24:32;;;;;;;;;;;;;;;17.90;65.76;100702.40;2290830;76;50226;-76
2022/11/15 02:27:51;;;;;;;;;;;;;;;17.93;65.71;100701.21;2315599;77;50270;-76
2022/11/15 02:30:57;;;;;;;;;;;;;;;17.92;65.65;100707.08;2315779;77;51523;-76
2022/11/15 02:34:07;;;;;;;;;;;;;;;17.91;65.67;100701.92;2315458;77;50274;-76
2022/11/15 02:37:27;;;;;;;;;;;;;;;17.92;65.63;100707.59;2261616;76;51706;-76
2022/11/15 02:40:30;;;;;;;;;;;;;;;17.90;65.68;100707.75;2339593;75;50257;-76
2022/11/15 02:47:12;;;;;;;;;;;;;;;17.88;65.83;100711.14;2355927;75;21821;-76
2022/11/15 02:50:15;;;;;;;;;;;;;;;17.89;65.72;100703.93;2330477;75;52739;-76
2022/11/15 02:53:17;;;;;;;;;;;;;;;17.86;65.67;100699.77;2355090;75;51342;-76
2022/11/15 02:56:19;;;;;;;;;;;;;;;17.86;65.67;100686.38;2339851;74;50414;-76
2022/11/15 02:59:25;;;;;;;;;;;;;;;17.88;65.59;100683.51;2367684;75;50238;-76
2022/11/15 03:02:37;;;;;;;;;;;;;;;17.87;65.67;100696.58;2339725;75;51741;-76
2022/11/15 03:05:52;;;;;;;;;;;;;;;17.84;65.80;100688.40;2367469;74;50691;-76
2022/11/15 03:09:02;;;;;;;;;;;;;;;17.86;65.69;100678.86;2345648;75;51436;-76
2022/11/15 03:12:23;;;;;;;;;;;;;;;17.88;65.56;100678.16;2321525;75;50290;-76
2022/11/15 03:15:27;;;;;;;;;;;;;;;17.89;65.40;100672.64;2300170;76;50333;-75
2022/11/15 03:18:35;;;;;;;;;;;;;;;17.86;65.53;100677.52;2327222;76;50701;-77
2022/11/15 03:21:37;;;;;;;;;;;;;;;17.86;65.58;100682.37;2326746;76;51760;-76
2022/11/15 03:24:39;;;;;;;;;;;;;;;17.83;65.52;100672.84;2326808;76;51432;-75
2022/11/15 03:27:41;;;;;;;;;;;;;;;17.83;65.48;100688.08;2324892;76;52335;-75
2022/11/15 03:30:43;;;;;;;;;;;;;;;17.82;65.59;100686.39;2326823;76;50259;-75
2022/11/15 03:33:44;;;;;;;;;;;;;;;17.83;65.55;100688.08;2326915;76;50619;-75
2022/11/15 03:36:46;;;;;;;;;;;;;;;17.83;65.48;100674.70;2334004;75;51443;-75
2022/11/15 03:39:48;;;;;;;;;;;;;;;17.84;65.52;100673.67;2383488;73;52457;-76
2022/11/15 03:42:51;;;;;;;;;;;;;;;17.81;65.53;100672.19;2414183;73;51449;-76
2022/11/15 03:45:54;;;;;;;;;;;;;;;17.82;65.54;100684.55;2413797;73;51406;-76
2022/11/15 03:48:57;;;;;;;;;;;;;;;17.81;65.50;100666.83;2412328;73;51324;-76
2022/11/15 03:51:59;;;;;;;;;;;;;;;17.80;65.49;100667.00;2386749;73;52410;-76
2022/11/15 03:55:01;;;;;;;;;;;;;;;17.79;65.53;100676.02;2413868;73;50309;-77
2022/11/15 03:58:02;;;;;;;;;;;;;;;17.79;65.50;100666.66;2413757;73;51532;-76
2022/11/15 04:01:04;;;;;;;;;;;;;;;17.79;65.41;100667.51;2414077;73;51528;-76
2022/11/15 04:04:06;;;;;;;;;;;;;;;17.81;65.36;100668.69;2387425;73;51626;-76
2022/11/15 04:07:07;;;;;;;;;;;;;;;17.79;65.37;100665.31;2365047;73;51483;-76
2022/11/15 04:10:09;;;;;;;;;;;;;;;17.78;65.01;100663.15;2354635;75;51536;-76
2022/11/15 04:13:11;;;;;;;;;;;;;;;17.79;64.93;100659.95;2368346;75;50404;-76
2022/11/15 04:16:13;;;;;;;;;;;;;;;17.81;64.81;100655.30;2342823;75;51592;-76
2022/11/15 04:25:54;;;;;;;;;;;;;;;17.94;64.42;100651.52;2368608;75;22479;-75
2022/11/15 04:32:15;;;;;;;;;;;;;;;18.05;64.16;100652.94;2372136;75;22049;-77
2022/11/15 04:35:17;;;;;;;;;;;;;;;18.09;63.95;100656.11;2353776;75;51575;-77
2022/11/15 04:38:20;;;;;;;;;;;;;;;18.09;63.93;100652.92;2369218;75;50722;-76
2022/11/15 04:41:21;;;;;;;;;;;;;;;18.07;63.93;100654.94;2344038;75;50092;-75
2022/11/15 04:44:23;;;;;;;;;;;;;;;18.06;63.87;100647.42;2368790;75;52310;-76
2022/11/15 04:47:25;;;;;;;;;;;;;;;18.06;63.86;100647.42;2368682;75;51432;-76
2022/11/15 04:50:26;;;;;;;;;;;;;;;18.05;63.92;100651.09;2370812;75;51528;-76
2022/11/15 04:53:28;;;;;;;;;;;;;;;18.01;63.65;100640.94;2372843;74;51770;-77
2022/11/15 04:56:30;;;;;;;;;;;;;;;18.06;63.76;100642.06;2345121;75;50399;-74
2022/11/15 04:59:31;;;;;;;;;;;;;;;18.05;63.79;100641.72;2371180;75;50239;-74
2022/11/15 05:05:52;;;;;;;;;;;;;;;18.06;63.75;100639.39;2386523;73;21868;-75
2022/11/15 05:08:54;;;;;;;;;;;;;;;18.11;63.46;100636.66;2390790;73;50381;-76
2022/11/15 05:11:56;;;;;;;;;;;;;;;18.03;63.69;100641.57;2415708;73;50245;-76
2022/11/15 05:14:57;;;;;;;;;;;;;;;18.03;63.85;100639.75;2417288;73;50626;-73
2022/11/15 05:18:02;;;;;;;;;;;;;;;17.99;64.15;100645.12;2421594;73;51657;-77
2022/11/15 05:21:06;;;;;;;;;;;;;;;18.00;65.12;100643.27;2391644;73;22394;-76
2022/11/15 05:24:09;;;;;;;;;;;;;;;17.95;65.23;100641.13;2414822;73;50669;-77
2022/11/15 05:27:11;;;;;;;;;;;;;;;17.97;64.73;100628.91;2414702;73;50406;-76
2022/11/15 05:30:12;;;;;;;;;;;;;;;17.97;64.13;100637.77;2418993;73;50993;-76
2022/11/15 05:33:14;;;;;;;;;;;;;;;18.00;64.07;100631.23;2386316;73;50114;-75
2022/11/15 05:36:20;;;;;;;;;;;;;;;17.95;64.18;100631.76;2367839;75;50635;-76
2022/11/15 05:39:22;;;;;;;;;;;;;;;17.94;64.32;100632.78;2367916;74;51445;-76
2022/11/15 05:42:23;;;;;;;;;;;;;;;17.95;64.38;100635.77;2334363;75;50928;-77
2022/11/15 05:45:25;;;;;;;;;;;;;;;17.93;64.61;100643.17;2367517;75;50415;-76
2022/11/15 05:48:26;;;;;;;;;;;;;;;17.92;64.99;100636.14;2367644;75;50585;-76
2022/11/15 05:51:28;;;;;;;;;;;;;;;17.93;64.77;100643.66;2367035;75;50722;-76
2022/11/15 05:54:29;;;;;;;;;;;;;;;17.92;64.80;100644.17;2339475;75;52445;-76
2022/11/15 05:57:31;;;;;;;;;;;;;;;17.92;64.58;100641.48;2339977;74;51542;-76
2022/11/15 06:00:32;;;;;;;;;;;;;;;17.94;64.87;100635.45;2367531;75;51499;-75
2022/11/15 06:03:34;;;;;;;;;;;;;;;17.96;65.61;100639.31;2374572;73;50365;-75
2022/11/15 06:06:36;;;;;;;;;;;;;;;18.00;65.80;100638.75;2346780;74;51149;-76
2022/11/15 06:09:37;;;;;;;;;;;;;;;18.03;67.12;100645.59;2372016;75;50312;-75
2022/11/15 06:12:39;;;;;;;;;;;;;;;18.01;66.87;100645.78;2340031;75;50678;-76
2022/11/15 06:15:40;;;;;;;;;;;;;;;18.02;67.00;100645.27;2367920;74;51515;-75
2022/11/15 06:18:42;;;;;;;;;;;;;;;18.00;67.17;100645.95;2314006;75;50952;-76
2022/11/15 06:21:43;;;;;;;;;;;;;;;17.99;66.95;100645.12;2341557;74;51636;-75
2022/11/15 06:24:45;;;;;;;;;;;;;;;18.00;66.48;100644.09;2328013;76;51576;-75
2022/11/15 06:27:49;;;;;;;;;;;;;;;17.99;66.70;100653.16;2344090;75;50820;-75
2022/11/15 06:30:50;;;;;;;;;;;;;;;18.00;66.61;100658.00;2347763;75;51620;-74
2022/11/15 06:33:52;;;;;;;;;;;;;;;18.00;66.69;100660.16;2360321;73;51479;-75
2022/11/15 06:36:53;;;;;;;;;;;;;;;18.01;66.40;100663.19;2379576;74;51442;-76
2022/11/15 06:39:55;;;;;;;;;;;;;;;18.00;66.84;100656.15;2368790;73;50721;-77
2022/11/15 06:43:00;;;;;;;;;;;;;;;18.04;67.55;100661.48;2336025;75;52423;-76
2022/11/15 06:46:01;;;;;;;;;;;;;;;18.03;67.95;100662.51;2339811;75;50637;-78
2022/11/15 06:49:03;;;;;;;;;;;;;;;18.04;68.15;100655.30;2367404;75;50424;-77
2022/11/15 06:52:05;;;;;;;;;;;;;;;18.05;66.92;100652.42;2340102;74;51446;-78
2022/11/15 06:55:07;;;;;;;;;;;;;;;18.09;68.35;100662.80;2338312;75;52205;-77
2022/11/15 06:58:09;;;;;;;;;;;;;;;18.08;68.13;100666.47;2366960;75;51616;-78
2022/11/15 07:01:11;;;;;;;;;;;;;;;18.16;66.85;100661.05;2326991;76;50780;-77
2022/11/15 07:04:12;;;;;;;;;;;;;;;18.13;66.66;100668.94;2352174;73;50677;-78
2022/11/15 07:07:14;;;;;;;;;;;;;;;18.09;66.48;100668.16;2336412;75;52532;-77
2022/11/15 07:10:16;;;;;;;;;;;;;;;18.03;66.37;100663.84;2336251;75;51527;-78
2022/11/15 07:13:17;;;;;;;;;;;;;;;18.00;66.32;100661.50;2335839;75;51600;-80
2022/11/15 07:16:19;;;;;;;;;;;;;;;18.00;66.26;100668.20;2361954;75;51556;-78
2022/11/15 07:19:20;;;;;;;;;;;;;;;17.98;66.27;100672.06;2336955;75;52346;-78
2022/11/15 07:22:22;;;;;;;;;;;;;;;17.96;66.31;100680.29;2362139;75;51429;-78
2022/11/15 07:25:23;;;;;;;;;;;;;;;17.97;66.20;100679.78;2336983;75;50618;-78
2022/11/15 07:28:26;;;;;;;;;;;;;;;18.02;66.71;100684.92;2359600;75;50741;-77
2022/11/15 07:31:28;;;;;;;;;;;;;;;18.11;66.07;100688.39;2362558;74;51404;-77
2022/11/15 07:34:29;;;;;;;;;;;;;;;18.15;65.89;100687.52;2374382;74;51566;-77
2022/11/15 07:37:31;;;;;;;;;;;;;;;18.20;65.74;100682.45;2368589;75;51422;-78
2022/11/15 07:40:32;;;;;;;;;;;;;;;18.16;66.37;100683.81;2368936;74;51444;-77
2022/11/15 07:43:35;;;;;;;;;;;;;;;18.12;66.41;100683.86;2341395;74;49546;-78
2022/11/15 07:46:36;;;;;;;;;;;;;;;18.10;66.56;100681.35;2368615;75;51483;-78
2022/11/15 07:49:38;;;;;;;;;;;;;;;18.08;66.66;100677.19;2369442;74;50395;-77
2022/11/15 07:52:39;;;;;;;;;;;;;;;18.05;66.60;100679.20;2368998;74;50276;-78
2022/11/15 07:55:42;;;;;;;;;;;;;;;18.08;66.65;100678.02;2334616;75;52661;-76
2022/11/15 07:58:45;;;;;;;;;;;;;;;18.12;66.07;100678.00;2372821;75;50535;-77
2022/11/15 08:01:46;;;;;;;;;;;;;;;18.18;65.77;100679.12;2369384;75;50785;-77
2022/11/15 08:04:48;;;;;;;;;;;;;;;18.12;66.16;100677.17;2369405;73;50422;-77
2022/11/15 08:07:50;;;;;;;;;;;;;;;18.09;66.29;100666.82;2388780;73;49610;-78
2022/11/15 08:10:51;;;;;;;;;;;;;;;18.02;66.46;100667.52;2389047;73;50433;-78
2022/11/15 08:13:53;;;;;;;;;;;;;;;18.00;66.49;100657.48;2414882;73;51397;-78
2022/11/15 08:16:58;;;;;;;;;;;;;;;17.99;66.54;100663.86;2414543;73;51425;-79
2022/11/15 08:19:59;;;;;;;;;;;;;;;17.99;66.64;100660.36;2362041;73;52909;-78
2022/11/15 08:23:01;;;;;;;;;;;;;;;17.97;66.67;100663.20;2388949;73;51508;-78
2022/11/15 08:26:03;;;;;;;;;;;;;;;18.08;66.08;100662.45;2412596;73;51625;-77
2022/11/15 08:29:05;;;;;;;;;;;;;;;18.15;65.72;100660.73;2414145;73;51590;-77
2022/11/15 08:32:07;;;;;;;;;;;;;;;18.13;65.72;100666.77;2398015;73;50395;-77
2022/11/15 08:35:09;;;;;;;;;;;;;;;18.16;65.58;100659.23;2355742;73;50518;-77
2022/11/15 08:38:10;;;;;;;;;;;;;;;18.16;65.56;100661.05;2414340;73;51409;-77
2022/11/15 08:41:13;;;;;;;;;;;;;;;18.17;65.51;100654.70;2412761;73;50727;-77
2022/11/15 08:44:15;;;;;;;;;;;;;;;18.10;65.90;100653.75;2388267;73;49640;-76
2022/11/15 08:47:17;;;;;;;;;;;;;;;18.02;66.17;100656.81;2388768;73;50304;-79
2022/11/15 08:50:18;;;;;;;;;;;;;;;18.02;66.28;100654.13;2388722;73;50526;-77
2022/11/15 08:53:20;;;;;;;;;;;;;;;18.01;66.27;100654.33;2386254;73;50240;-77
2022/11/15 08:56:21;;;;;;;;;;;;;;;18.03;66.09;100663.84;2361391;73;50113;-77
2022/11/15 08:59:23;;;;;;;;;;;;;;;18.10;65.71;100665.80;2415031;73;50607;-77
2022/11/15 09:02:25;;;;;;;;;;;;;;;18.14;65.54;100661.25;2396554;73;50400;-77
2022/11/15 09:05:26;;;;;;;;;;;;;;;18.14;65.51;100661.25;2345328;75;50630;-77
2022/11/15 09:08:29;;;;;;;;;;;;;;;18.14;65.47;100665.78;2366102;75;50133;-77
2022/11/15 09:11:31;;;;;;;;;;;;;;;18.10;65.68;100663.13;2369142;75;50361;-76
2022/11/15 09:14:33;;;;;;;;;;;;;;;18.02;66.01;100663.50;2373026;75;50429;-78
2022/11/15 09:17:34;;;;;;;;;;;;;;;18.03;66.04;100662.99;2368148;75;50395;-77
2022/11/15 09:20:36;;;;;;;;;;;;;;;18.01;66.18;100666.38;2373675;75;51095;-77
2022/11/15 09:23:38;;;;;;;;;;;;;;;18.02;66.06;100665.35;2369156;75;50505;-78
2022/11/15 09:26:39;;;;;;;;;;;;;;;18.02;65.92;100659.48;2369280;75;51549;-77
2022/11/15 09:29:41;;;;;;;;;;;;;;;18.12;65.52;100655.23;2297976;77;51433;-77
2022/11/15 09:32:43;;;;;;;;;;;;;;;18.11;65.50;100657.59;2364615;74;52316;-78
2022/11/15 09:35:44;;;;;;;;;;;;;;;18.14;65.35;100664.44;2360257;75;51531;-78
2022/11/15 09:38:46;;;;;;;;;;;;;;;18.12;65.42;100667.28;2397576;73;50308;-78
2022/11/15 09:42:01;;;;;;;;;;;;;;;18.13;65.42;100667.59;2338899;73;50277;-78
2022/11/15 09:45:07;;;;;;;;;;;;;;;18.02;65.80;100667.52;2309246;76;50954;-78
2022/11/15 09:48:11;;;;;;;;;;;;;;;17.97;66.01;100664.55;2335492;74;50715;-77
2022/11/15 09:51:20;;;;;;;;;;;;;;;17.97;66.12;100667.73;2326386;74;50778;-77
2022/11/15 09:54:23;;;;;;;;;;;;;;;17.95;66.07;100665.73;2334503;76;50385;-77
2022/11/15 09:57:27;;;;;;;;;;;;;;;18.02;65.79;100666.18;2309031;74;49647;-78
2022/11/15 10:00:35;;;;;;;;;;;;;;;18.09;65.48;100656.11;2326593;76;50357;-78
2022/11/15 10:03:39;;;;;;;;;;;;;;;18.12;65.39;100653.07;2340549;75;50207;-78
2022/11/15 10:06:42;;;;;;;;;;;;;;;18.09;65.38;100652.92;2329402;75;50553;-79
2022/11/15 10:09:48;;;;;;;;;;;;;;;18.12;65.30;100647.71;2349450;73;51452;-78
2022/11/15 10:12:50;;;;;;;;;;;;;;;18.12;65.32;100635.66;2414201;73;50571;-78
2022/11/15 10:15:52;;;;;;;;;;;;;;;18.03;65.72;100638.89;2414227;73;50720;-78
2022/11/15 10:18:55;;;;;;;;;;;;;;;17.98;65.85;100635.44;2415673;73;50639;-77
2022/11/15 10:22:08;;;;;;;;;;;;;;;17.98;65.88;100627.89;2389216;73;49465;-77
2022/11/15 10:25:12;;;;;;;;;;;;;;;17.97;65.89;100623.05;2415350;73;51067;-78
2022/11/15 10:28:24;;;;;;;;;;;;;;;18.03;65.55;100617.47;2415231;73;50800;-77
2022/11/15 10:31:27;;;;;;;;;;;;;;;18.06;65.44;100615.80;2414737;73;50702;-76
2022/11/15 10:34:29;;;;;;;;;;;;;;;18.05;65.42;100608.25;2387702;73;51027;-77
2022/11/15 10:37:31;;;;;;;;;;;;;;;18.07;65.37;100606.74;2372333;73;51430;-78
2022/11/15 10:40:32;;;;;;;;;;;;;;;18.05;65.40;100600.22;2325501;76;50536;-78
2022/11/15 10:43:34;;;;;;;;;;;;;;;18.05;65.38;100587.34;2328413;76;51408;-77
2022/11/15 10:46:36;;;;;;;;;;;;;;;18.01;65.63;100586.88;2327905;76;50634;-78
2022/11/15 10:49:38;;;;;;;;;;;;;;;17.97;65.83;100581.55;2329289;76;50756;-77
2022/11/15 10:52:41;;;;;;;;;;;;;;;17.94;65.88;100580.58;2300109;76;50671;-79
2022/11/15 10:55:43;;;;;;;;;;;;;;;17.96;65.85;100581.23;2327336;74;50762;-77
2022/11/15 10:58:51;;;;;;;;;;;;;;;17.99;65.61;100570.67;2327920;76;51542;-77
2022/11/15 11:01:53;;;;;;;;;;;;;;;18.03;65.47;100567.94;2327659;76;50535;-77
2022/11/15 11:04:55;;;;;;;;;;;;;;;18.06;65.38;100574.30;2327043;76;50729;-78
2022/11/15 11:07:58;;;;;;;;;;;;;;;18.08;65.29;100570.08;2333279;75;52404;-77
2022/11/15 11:11:01;;;;;;;;;;;;;;;18.07;65.33;100565.24;2327834;75;49712;-77
2022/11/15 11:14:04;;;;;;;;;;;;;;;18.05;65.32;100556.04;2373952;75;51550;-77
2022/11/15 11:17:25;;;;;;;;;;;;;;;17.99;65.54;100551.94;2372938;75;51413;-76
2022/11/15 11:20:37;;;;;;;;;;;;;;;17.96;65.72;100543.76;2372706;75;50877;-77
2022/11/15 11:23:41;;;;;;;;;;;;;;;17.97;65.68;100542.73;2346800;75;52838;-77
2022/11/15 11:27:00;;;;;;;;;;;;;;;17.98;65.66;100546.23;2373038;75;50695;-77
2022/11/15 11:30:22;;;;;;;;;;;;;;;18.02;65.42;100540.86;2372717;75;51642;-77
2022/11/15 11:33:33;;;;;;;;;;;;;;;18.08;65.28;100539.29;2373388;75;49974;-78
2022/11/15 11:36:40;;;;;;;;;;;;;;;18.10;65.18;100540.77;2348439;75;52463;-78
2022/11/15 11:39:52;;;;;;;;;;;;;;;18.11;65.12;100540.26;2372992;73;51448;-77
2022/11/15 11:42:58;;;;;;;;;;;;;;;18.11;65.06;100534.42;2263979;76;50700;-76
2022/11/15 11:46:06;;;;;;;;;;;;;;;18.13;65.01;100535.05;2289439;77;22298;-78
2022/11/15 11:49:18;;;;;;;;;;;;;;;18.02;65.37;100530.97;2263530;77;52207;-78
2022/11/15 11:52:28;;;;;;;;;;;;;;;17.98;65.47;100527.02;2403534;73;50670;-77
2022/11/15 11:55:38;;;;;;;;;;;;;;;17.96;65.60;100532.22;2387492;74;51540;-79
2022/11/15 11:58:41;;;;;;;;;;;;;;;18.00;65.44;100529.48;2369388;74;51549;-78
2022/11/15 12:01:44;;;;;;;;;;;;;;;18.06;65.29;100530.12;2395233;74;51708;-78
2022/11/15 12:04:47;;;;;;;;;;;;;;;18.04;65.30;100527.61;2357084;75;50789;-78
2022/11/15 12:07:49;;;;;;;;;;;;;;;18.07;65.18;100526.41;2390968;73;50459;-78
2022/11/15 12:10:52;;;;;;;;;;;;;;;18.07;65.17;100522.40;2327644;74;50299;-78
2022/11/15 12:13:55;;;;;;;;;;;;;;;18.09;65.14;100511.00;2303016;76;51277;-79
2022/11/15 12:16:57;;;;;;;;;;;;;;;18.03;65.42;100502.34;2326118;74;50259;-78
2022/11/15 12:19:59;;;;;;;;;;;;;;;17.98;65.61;100500.73;2327438;76;50744;-78
2022/11/15 12:23:15;;;;;;;;;;;;;;;17.95;65.76;100506.45;2327296;76;51647;-78
2022/11/15 12:26:18;;;;;;;;;;;;;;;17.95;65.65;100508.61;2326701;74;51807;-78
2022/11/15 12:29:21;;;;;;;;;;;;;;;18.03;65.54;100495.66;2365388;75;50799;-78
2022/11/15 12:32:27;;;;;;;;;;;;;;;18.10;65.48;100489.89;2324423;74;50655;-78
2022/11/15 12:35:33;;;;;;;;;;;;;;;18.14;65.36;100493.06;2361690;75;50731;-78
2022/11/15 12:38:54;;;;;;;;;;;;;;;18.14;65.32;100483.69;2312379;76;51833;-79
2022/11/15 12:41:57;;;;;;;;;;;;;;;18.14;65.43;100487.70;2328133;76;50629;-79
2022/11/15 12:44:59;;;;;;;;;;;;;;;18.15;65.43;100482.66;2402271;72;50434;-78
2022/11/15 12:48:18;;;;;;;;;;;;;;;18.13;65.49;100472.63;2401896;73;50338;-78
2022/11/15 12:51:20;;;;;;;;;;;;;;;18.12;65.42;100470.98;2385748;72;49912;-77
2022/11/15 12:54:31;;;;;;;;;;;;;;;18.05;65.63;100468.20;2369699;74;51534;-78
2022/11/15 12:57:30;;;;;;;;;;;;;;;18.07;65.63;100466.17;2368582;74;22864;-77
2022/11/15 13:00:33;;;;;;;;;;;;;;;18.03;65.73;100463.05;2389360;73;50392;-77
2022/11/15 13:03:34;;;;;;;;;;;;;;;18.07;65.65;100455.47;2382889;73;50118;-77
2022/11/15 13:06:43;;;;;;;;;;;;;;;17.99;65.83;100454.22;2383327;73;52277;-77
2022/11/15 13:09:46;;;;;;;;;;;;;;;17.93;66.04;100450.92;2411790;73;51622;-77
2022/11/15 13:12:48;;;;;;;;;;;;;;;17.89;66.14;100454.48;2411521;73;51556;-77
2022/11/15 13:15:59;;;;;;;;;;;;;;;17.88;66.14;100446.14;2382748;72;49619;-78
2022/11/15 13:19:00;;;;;;;;;;;;;;;17.94;65.96;100444.05;2390309;73;51558;-77
2022/11/15 13:25:28;;;;;;;;;;;;;;;17.90;66.19;100453.97;2412081;73;22358;-76
2022/11/15 13:28:37;;;;;;;;;;;;;;;17.87;66.35;100440.44;2383055;73;51360;-77
2022/11/15 13:31:40;;;;;;;;;;;;;;;17.85;66.38;100445.14;2341694;74;52368;-77
2022/11/15 13:34:46;;;;;;;;;;;;;;;17.87;66.38;100431.59;2425643;72;50066;-77
2022/11/15 13:37:48;;;;;;;;;;;;;;;17.87;66.35;100428.91;2415270;72;50432;-77
2022/11/15 13:40:50;;;;;;;;;;;;;;;17.86;66.33;100425.92;2412632;73;51607;-77
2022/11/15 13:43:52;;;;;;;;;;;;;;;17.87;66.24;100433.75;2396779;73;51789;-77
2022/11/15 13:46:58;;;;;;;;;;;;;;;17.87;66.24;100435.09;2383075;73;50452;-77
2022/11/15 13:50:05;;;;;;;;;;;;;;;17.85;66.23;100427.75;2394660;73;50723;-76
2022/11/15 13:53:03;;;;;;;;;;;;;;;17.85;66.14;100433.09;2408938;72;22960;-77
2022/11/15 13:56:05;;;;;;;;;;;;;;;17.81;66.46;100421.94;2410364;73;49600;-77
2022/11/15 13:59:10;;;;;;;;;;;;;;;17.83;66.44;100422.59;2399572;73;50249;-75
2022/11/15 14:02:13;;;;;;;;;;;;;;;17.82;66.46;100428.95;2368500;75;50290;-76
2022/11/15 14:05:16;;;;;;;;;;;;;;;17.86;66.31;100426.75;2371411;72;50829;-74
2022/11/15 14:08:22;;;;;;;;;;;;;;;17.88;66.38;100423.87;2408739;73;51481;-75
2022/11/15 14:11:24;;;;;;;;;;;;;;;17.90;66.28;100429.36;2411730;73;50671;-75
2022/11/15 14:14:26;;;;;;;;;;;;;;;17.90;66.20;100431.22;2388737;72;51455;-75
2022/11/15 14:17:32;;;;;;;;;;;;;;;17.84;66.25;100432.27;2411038;73;50462;-75
2022/11/15 14:20:36;;;;;;;;;;;;;;;17.84;66.21;100443.49;2408336;73;51585;-75
2022/11/15 14:23:37;;;;;;;;;;;;;;;17.84;66.17;100442.98;2407595;74;51460;-75
2022/11/15 14:26:39;;;;;;;;;;;;;;;17.88;66.02;100439.45;2382572;74;50539;-75
2022/11/15 14:29:40;;;;;;;;;;;;;;;17.93;65.83;100432.18;2408335;73;52340;-75
2022/11/15 14:32:49;;;;;;;;;;;;;;;17.95;65.74;100432.83;2377391;72;52692;-76
2022/11/15 14:35:51;;;;;;;;;;;;;;;17.98;65.58;100433.31;2395457;72;51528;-76
2022/11/15 14:38:54;;;;;;;;;;;;;;;17.94;65.74;100425.31;2412004;73;50751;-75
2022/11/15 14:41:55;;;;;;;;;;;;;;;17.91;65.93;100424.87;2403988;73;51523;-75
2022/11/15 14:44:57;;;;;;;;;;;;;;;17.87;65.95;100428.91;2365391;74;51211;-76
2022/11/15 14:47:59;;;;;;;;;;;;;;;17.83;66.02;100425.27;2379073;74;50107;-75
2022/11/15 14:51:00;;;;;;;;;;;;;;;17.84;66.00;100424.76;2402764;74;50726;-75
2022/11/15 14:54:02;;;;;;;;;;;;;;;17.82;66.07;100420.09;2404353;74;50661;-75
2022/11/15 14:57:03;;;;;;;;;;;;;;;17.87;65.84;100408.33;2350407;74;50954;-75
2022/11/15 15:00:05;;;;;;;;;;;;;;;17.96;65.54;100410.42;2378932;73;51411;-76
2022/11/15 15:03:07;;;;;;;;;;;;;;;18.02;65.29;100400.30;2404593;72;50112;-77
2022/11/15 15:06:09;;;;;;;;;;;;;;;18.02;65.24;100398.96;2380240;73;51686;-75
2022/11/15 15:09:11;;;;;;;;;;;;;;;18.01;65.17;100395.97;2341865;74;50295;-75
2022/11/15 15:12:14;;;;;;;;;;;;;;;18.00;65.19;100395.12;2341937;75;51377;-76
2022/11/15 15:15:16;;;;;;;;;;;;;;;17.90;65.56;100401.26;2370285;74;51975;-76
2022/11/15 15:18:18;;;;;;;;;;;;;;;17.86;65.72;100401.33;2369972;75;50439;-77
2022/11/15 15:21:30;;;;;;;;;;;;;;;17.83;65.81;100393.67;2342476;74;50960;-76
2022/11/15 15:24:32;;;;;;;;;;;;;;;17.82;65.86;100397.34;2342623;75;51460;-76
2022/11/15 15:27:34;;;;;;;;;;;;;;;17.89;65.57;100393.43;2368962;74;50763;-76
2022/11/15 15:30:35;;;;;;;;;;;;;;;18.00;65.18;100397.80;2342752;75;51549;-76
2022/11/15 15:33:37;;;;;;;;;;;;;;;18.03;65.05;100393.92;2350724;73;51540;-75
2022/11/15 15:36:39;;;;;;;;;;;;;;;18.06;64.95;100396.25;2412259;73;50472;-76
2022/11/15 15:39:44;;;;;;;;;;;;;;;18.06;64.85;100397.59;2407943;72;51488;-76
2022/11/15 15:42:46;;;;;;;;;;;;;;;17.99;65.04;100398.83;2417385;73;51337;-75
2022/11/15 15:45:48;;;;;;;;;;;;;;;17.92;65.38;100386.36;2388633;73;51648;-76
2022/11/15 15:48:49;;;;;;;;;;;;;;;17.89;65.51;100380.88;2415194;73;50621;-76
2022/11/15 15:51:51;;;;;;;;;;;;;;;17.82;65.66;100382.11;2413594;73;50388;-75
2022/11/15 15:54:53;;;;;;;;;;;;;;;17.82;65.74;100375.93;2414401;73;50617;-77
2022/11/15 15:57:54;;;;;;;;;;;;;;;17.86;65.50;100382.59;2361418;73;51717;-76
2022/11/15 16:00:56;;;;;;;;;;;;;;;17.96;65.15;100377.78;2387284;73;50113;-75